Boston, Massachusetts
Traffic Map
Current Weather Conditions
Boston, Massachusetts
Broken Clouds
Broken Clouds

Feels Like: 7°
Wind Chill: Ceiling: 25000
Heat Index: Visibility: 10mi
Dew Point: -2° Wind: 5mph
Humidity: 51% Direction: 270° (W)
Pressure: 30.14in Gusts: 0mph
Raw Report DataKBOS 212154Z 27004KT 10SM SCT220 BKN250 08/M02 A3014 RMK AO2 SLP206 T00781017
Traffic Incident Summary
Active as of:
Severity:
Category:
InformationThere was an issue retrieving the traffic information for this location. Please try a different location or try again shortly.
Advertisements